^^
Station Historical Data
Daily Summary for January 1, 2018 Units:  Metric    English   Both
« Previous Day
Next Day »
Daily Weekly Monthly Yearly Custom
  High: Low: Average:
Temperature: 20.7 °C 14.4 °C 17.8 °C
Dew Point: 9 °C 6.8 °C 8 °C
Humidity: 70% 43% 54%
Wind Speed: 32km/h 13km/h 20.8km/h
Wind Gust: 37km/h - -
Wind- - South
Pressure: 1012.4 hPa 1009.7 hPa -
Precipitation: 0 mm    
Historical Graphs
 
 
Tabular Data for January 1, 2018
Time Temperature Dew Point Pressure Wind Wind Speed Wind Gust Humidity Rainfall Rate (Hourly) solar Conditions
00:06 16.4 °C 6.8 °C 1010.4 hPa South 28.8 km/h 33.8 km/h 53% 0 mm 0.0 W/m2
00:21 16.2 °C 7.7 °C 1010.4 hPa South 19.5 km/h 20.9 km/h 57% 0 mm 0.0 W/m2
00:35 15.8 °C 8.3 °C 1010 hPa SSW 20.9 km/h 29 km/h 61% 0 mm 0.0 W/m2
00:50 15.5 °C 8.5 °C 1010 hPa South 19.5 km/h 27.4 km/h 63% 0 mm 0.0 W/m2
01:05 15.2 °C 8.7 °C 1010 hPa SSW 24.1 km/h 30.6 km/h 65% 0 mm 0.0 W/m2
01:20 15 °C 8.9 °C 1009.7 hPa SSW 32 km/h 37 km/h 67% 0 mm 0.0 W/m2
01:49 14.6 °C 9 °C 1010 hPa SSW 27.4 km/h 27.4 km/h 69% 0 mm 0.0 W/m2
01:59 14.5 °C 8.9 °C 1009.7 hPa SSW 20.9 km/h 25.7 km/h 69% 0 mm 0.0 W/m2
02:08 14.4 °C 9 °C 1009.7 hPa SSW 28.8 km/h 29 km/h 70% 0 mm 0.0 W/m2
02:15 14.4 °C 9 °C 1009.7 hPa SSW 20.9 km/h 25.7 km/h 70% 0 mm 0.0 W/m2
22:30 20.7 °C 7.7 °C 1012.1 hPa South 14.3 km/h 29 km/h 43% 0 mm 0.0 W/m2
22:35 20.5 °C 7.5 °C 1012.1 hPa South 24.1 km/h 25.7 km/h 43% 0 mm 0.0 W/m2
22:46 20.3 °C 7.6 °C 1012.1 hPa SSE 17.7 km/h 24.1 km/h 44% 0 mm 0.0 W/m2
22:54 20.1 °C 7.8 °C 1012.1 hPa South 19.5 km/h 24.1 km/h 45% 0 mm 0.0 W/m2
23:05 19.9 °C 7.6 °C 1012.1 hPa South 17.7 km/h 19.3 km/h 45% 0 mm 0.0 W/m2
23:14 19.7 °C 7.4 °C 1012.1 hPa South 22.7 km/h 22.7 km/h 45% 0 mm 0.0 W/m2
23:19 19.6 °C 7.7 °C 1012.4 hPa South 19.5 km/h 22.5 km/h 46% 0 mm 0.0 W/m2
23:29 19.4 °C 7.5 °C 1012.4 hPa South 20.9 km/h 22.5 km/h 46% 0 mm 0.0 W/m2
23:34 19.4 °C 7.8 °C 1012.4 hPa South 19.5 km/h 24.1 km/h 47% 0 mm 0.0 W/m2
23:39 19.3 °C 7.7 °C 1012.4 hPa South 17.7 km/h 24.1 km/h 47% 0 mm 0.0 W/m2
23:44 19.3 °C 7.7 °C 1012.4 hPa SSW 16.3 km/h 20.9 km/h 47% 0 mm 0.0 W/m2
23:49 19.2 °C 7.6 °C 1012.4 hPa South 14.3 km/h 19.3 km/h 47% 0 mm 0.0 W/m2
23:54 19.2 °C 7.6 °C 1012.4 hPa South 13 km/h 17.7 km/h 47% 0 mm 0.0 W/m2
23:59 19.1 °C 7.5 °C 1012.4 hPa South 17.7 km/h 22.5 km/h 47% 0 mm 0.0 W/m2
Canyon Roadhouse, Fishriver Canyon, Namibia
Compliments of Weather Underground - 1.75 mb